MSSS/SAL METAR and TAF weather

Enter ICAO airport designator
Station Type Date Time Source
MSSS METAR 2020/01/21 14:50 UTC NOAA

MSSS 211450Z 33012KT CAVOK 24/16 Q1019 A3010


Station Type Date Time Source
MSSS Decoded METAR 2020/01/21 14:50 UTC NOAA

San Salvador / Ilopango, El Salvador (MSSS) 13-42N 089-07W 621M
Jan 21, 2020 - 09:50 AM EST / 2020.01.21 1450 UTC
Wind: from the NNW (330 degrees) at 14 MPH (12 KT):0
Visibility: greater than 7 mile(s):0
Temperature: 75 F (24 C)
Dew Point: 60 F (16 C)
Relative Humidity: 60%
Pressure (altimeter): 30.1 in. Hg (1019 hPa)
ob: MSSS 211450Z 33012KT CAVOK 24/16 Q1019 A3010
cycle: 15

Station Type Date Time Source
MSSS TAF 2020/01/21 18:41 UTC NOAA

TAF MSSS 211525Z 2118/2218 35010G20KT CAVOK TX32/2120Z TN20/2212Z

Example: see airport list